Time;durP1;ratioP1;P1;durP2;ratioP2;P2;SDS_P1;SDS_P2;PMS_P1;PMS_P2;Temp;Humidity;BMP_temperature;BMP_pressure;BME280_temperature;BME280_humidity;BME280_pressure;Samples;Min_cycle;Max_cycle;Signal;HPM_P1;HPM_P2
2022/02/14 00:02:02;;;;;;;7.87;3.60;;;;;;;;;;5090602;28;20184;-69
2022/02/14 00:04:27;;;;;;;7.63;4.40;;;;;;;;;;5092353;28;20196;-70
2022/02/14 00:06:52;;;;;;;8.57;4.33;;;;;;;;;;5094384;28;20180;-68
2022/02/14 00:09:17;;;;;;;8.33;4.17;;;;;;;;;;5091646;28;20193;-68
2022/02/14 00:11:43;;;;;;;7.90;3.67;;;;;;;;;;5087093;28;20719;-69
2022/02/14 00:14:08;;;;;;;6.67;3.60;;;;;;;;;;5091543;28;20263;-69
2022/02/14 00:16:33;;;;;;;4.90;3.03;;;;;;;;;;5091564;28;20176;-69
2022/02/14 00:18:58;;;;;;;6.57;4.00;;;;;;;;;;5094680;28;20242;-69
2022/02/14 00:21:24;;;;;;;7.00;3.60;;;;;;;;;;5094855;28;20259;-69
2022/02/14 00:23:49;;;;;;;6.53;3.67;;;;;;;;;;5094587;28;20168;-69
2022/02/14 00:26:14;;;;;;;10.70;4.67;;;;;;;;;;5084286;28;20200;-68
2022/02/14 00:28:39;;;;;;;12.37;3.93;;;;;;;;;;5074228;28;20192;-68
2022/02/14 00:31:05;;;;;;;7.97;4.10;;;;;;;;;;5076086;28;20552;-68
2022/02/14 00:33:30;;;;;;;5.47;3.47;;;;;;;;;;5087061;28;20313;-67
2022/02/14 00:35:55;;;;;;;6.13;3.37;;;;;;;;;;5078435;28;20496;-69
2022/02/14 00:38:21;;;;;;;3.67;3.10;;;;;;;;;;5091832;28;20180;-69
2022/02/14 00:40:46;;;;;;;9.83;3.57;;;;;;;;;;5066201;28;20451;-69
2022/02/14 00:43:12;;;;;;;5.97;3.33;;;;;;;;;;5091662;28;20220;-69
2022/02/14 00:45:37;;;;;;;4.67;3.30;;;;;;;;;;5092959;28;20205;-69
2022/02/14 00:48:03;;;;;;;6.80;3.70;;;;;;;;;;5093676;28;20284;-69
2022/02/14 00:50:28;;;;;;;9.70;3.73;;;;;;;;;;5074128;28;20211;-70
2022/02/14 00:52:53;;;;;;;7.80;3.47;;;;;;;;;;5074360;28;20184;-68
2022/02/14 00:55:18;;;;;;;7.07;3.90;;;;;;;;;;5093678;28;20180;-70
2022/02/14 00:57:45;;;;;;;7.10;4.10;;;;;;;;;;5091064;28;20180;-68
2022/02/14 01:00:12;;;;;;;4.67;3.43;;;;;;;;;;5075794;28;20604;-70
2022/02/14 01:02:37;;;;;;;8.80;3.70;;;;;;;;;;5093378;28;20191;-69
2022/02/14 01:05:03;;;;;;;12.00;4.47;;;;;;;;;;5091445;28;20685;-69
2022/02/14 01:07:28;;;;;;;5.20;3.13;;;;;;;;;;5092622;28;20638;-69
2022/02/14 01:09:54;;;;;;;9.37;3.97;;;;;;;;;;5090975;28;20198;-69
2022/02/14 01:12:19;;;;;;;7.67;3.63;;;;;;;;;;5091766;28;20297;-69
2022/02/14 01:14:44;;;;;;;6.57;3.57;;;;;;;;;;5104793;28;20176;-70
2022/02/14 01:17:09;;;;;;;6.30;3.47;;;;;;;;;;5108541;28;20181;-68
2022/02/14 01:19:35;;;;;;;6.27;3.70;;;;;;;;;;5108455;28;20214;-68
2022/02/14 01:22:00;;;;;;;9.20;3.90;;;;;;;;;;5108060;28;20187;-68
2022/02/14 01:24:25;;;;;;;7.20;4.20;;;;;;;;;;5109156;28;20307;-71
2022/02/14 01:26:51;;;;;;;6.30;3.67;;;;;;;;;;5109462;28;20172;-70
2022/02/14 01:29:17;;;;;;;6.30;4.30;;;;;;;;;;5105059;28;20204;-67
2022/02/14 01:31:42;;;;;;;5.33;3.30;;;;;;;;;;5101495;28;20180;-68
2022/02/14 01:34:07;;;;;;;8.63;3.60;;;;;;;;;;5090718;28;20173;-68
2022/02/14 01:36:33;;;;;;;7.87;3.67;;;;;;;;;;5073476;28;20721;-70
2022/02/14 01:38:58;;;;;;;7.00;3.20;;;;;;;;;;5074769;28;20187;-70
2022/02/14 01:41:23;;;;;;;7.83;3.23;;;;;;;;;;5093835;28;20280;-69
2022/02/14 01:43:48;;;;;;;4.57;3.27;;;;;;;;;;5090755;28;20177;-69
2022/02/14 01:46:13;;;;;;;7.20;3.07;;;;;;;;;;5091221;28;20201;-69
2022/02/14 01:48:39;;;;;;;6.03;3.60;;;;;;;;;;5084726;28;20534;-69
2022/02/14 01:51:05;;;;;;;5.23;3.10;;;;;;;;;;5093929;28;20187;-69
2022/02/14 01:53:30;;;;;;;6.33;3.33;;;;;;;;;;5094654;28;20275;-69
2022/02/14 01:55:55;;;;;;;7.43;3.20;;;;;;;;;;5092923;28;20251;-69
2022/02/14 01:58:20;;;;;;;11.73;3.60;;;;;;;;;;5093470;28;20557;-69
2022/02/14 02:00:48;;;;;;;5.97;3.13;;;;;;;;;;5091445;28;20219;-69
2022/02/14 02:03:13;;;;;;;7.07;3.30;;;;;;;;;;5093391;28;20172;-68
2022/02/14 02:05:38;;;;;;;6.13;3.23;;;;;;;;;;5092492;28;20728;-69
2022/02/14 02:08:04;;;;;;;8.37;2.77;;;;;;;;;;5091666;28;20203;-69
2022/02/14 02:10:29;;;;;;;3.63;2.80;;;;;;;;;;5077181;28;20204;-69
2022/02/14 02:12:56;;;;;;;6.83;3.10;;;;;;;;;;5089356;28;20183;-69
2022/02/14 02:15:21;;;;;;;5.93;4.13;;;;;;;;;;5091320;28;20188;-69
2022/02/14 02:17:46;;;;;;;4.30;2.50;;;;;;;;;;5092728;28;20178;-70
2022/02/14 02:20:13;;;;;;;8.40;3.30;;;;;;;;;;5099088;22;20230;-70
2022/02/14 02:22:39;;;;;;;5.60;2.87;;;;;;;;;;5089922;28;20173;-70
2022/02/14 02:25:05;;;;;;;5.93;2.47;;;;;;;;;;5085047;28;20226;-70
2022/02/14 02:27:30;;;;;;;6.90;2.43;;;;;;;;;;5084907;28;20180;-70
2022/02/14 02:29:56;;;;;;;5.17;3.10;;;;;;;;;;5076660;28;20201;-69
2022/02/14 02:32:22;;;;;;;5.37;3.07;;;;;;;;;;5069709;28;20188;-70
2022/02/14 02:34:47;;;;;;;7.47;2.70;;;;;;;;;;5069058;28;20184;-69
2022/02/14 02:37:14;;;;;;;8.60;3.10;;;;;;;;;;5071475;28;20748;-69
2022/02/14 02:39:40;;;;;;;7.17;2.00;;;;;;;;;;5070689;28;20196;-69
2022/02/14 02:42:06;;;;;;;5.20;2.50;;;;;;;;;;5072099;28;20693;-70
2022/02/14 02:44:35;;;;;;;9.53;3.03;;;;;;;;;;5052115;28;20224;-70
2022/02/14 02:47:01;;;;;;;9.13;3.20;;;;;;;;;;5071900;28;20219;-69
2022/02/14 02:49:26;;;;;;;4.37;2.20;;;;;;;;;;5066844;28;20204;-69
2022/02/14 02:51:52;;;;;;;6.13;2.53;;;;;;;;;;5066695;28;20257;-69
2022/02/14 02:54:18;;;;;;;5.93;2.40;;;;;;;;;;5068242;28;20889;-70
2022/02/14 02:56:44;;;;;;;4.10;2.47;;;;;;;;;;5055136;28;20208;-70
2022/02/14 02:59:10;;;;;;;3.90;2.20;;;;;;;;;;5073025;28;20670;-70
2022/02/14 03:01:35;;;;;;;4.47;2.23;;;;;;;;;;5074097;28;20169;-69
2022/02/14 03:04:01;;;;;;;3.97;2.13;;;;;;;;;;5071089;28;20230;-71
2022/02/14 03:06:26;;;;;;;6.23;1.90;;;;;;;;;;5073683;28;20218;-70
2022/02/14 03:08:51;;;;;;;4.70;2.70;;;;;;;;;;5073668;28;20193;-70
2022/02/14 03:11:17;;;;;;;2.77;2.07;;;;;;;;;;5073161;28;20544;-71
2022/02/14 03:13:43;;;;;;;4.53;2.17;;;;;;;;;;5072538;28;20587;-70
2022/02/14 03:16:08;;;;;;;2.83;2.00;;;;;;;;;;5055530;28;20177;-70
2022/02/14 03:18:34;;;;;;;3.60;2.40;;;;;;;;;;5076592;28;20204;-70
2022/02/14 03:20:59;;;;;;;4.47;2.27;;;;;;;;;;5077273;28;20259;-70
2022/02/14 03:23:24;;;;;;;2.73;2.13;;;;;;;;;;5071803;28;20258;-70
2022/02/14 03:25:49;;;;;;;8.03;2.43;;;;;;;;;;5070722;28;20211;-72
2022/02/14 03:28:15;;;;;;;4.10;2.30;;;;;;;;;;5070545;28;20177;-71
2022/02/14 03:30:40;;;;;;;5.80;2.10;;;;;;;;;;5073393;28;20275;-70
2022/02/14 03:33:05;;;;;;;6.50;2.70;;;;;;;;;;5073242;28;20646;-71
2022/02/14 03:35:30;;;;;;;5.57;2.20;;;;;;;;;;5073230;28;20189;-71
2022/02/14 03:37:56;;;;;;;4.67;2.00;;;;;;;;;;5072426;28;20185;-70
2022/02/14 03:40:22;;;;;;;2.63;1.93;;;;;;;;;;5077047;28;20205;-70
2022/02/14 03:42:47;;;;;;;4.50;2.40;;;;;;;;;;5077073;28;20279;-69
2022/02/14 03:45:12;;;;;;;5.63;2.43;;;;;;;;;;5072914;28;20201;-70
2022/02/14 03:47:37;;;;;;;3.90;1.90;;;;;;;;;;5072836;28;20535;-70
2022/02/14 03:50:02;;;;;;;4.03;2.40;;;;;;;;;;5072472;28;20230;-70
2022/02/14 03:52:28;;;;;;;2.27;1.77;;;;;;;;;;5073056;28;20176;-70
2022/02/14 03:54:53;;;;;;;3.97;2.50;;;;;;;;;;5074018;28;20670;-70
2022/02/14 03:57:18;;;;;;;3.57;1.80;;;;;;;;;;5055363;28;20646;-70
2022/02/14 03:59:43;;;;;;;5.90;2.37;;;;;;;;;;5072189;28;20566;-70
2022/02/14 04:02:09;;;;;;;4.60;2.00;;;;;;;;;;5068935;28;20197;-70
2022/02/14 04:04:34;;;;;;;3.27;1.70;;;;;;;;;;5074193;28;20287;-70
2022/02/14 04:06:59;;;;;;;7.20;2.67;;;;;;;;;;5076120;28;20181;-70
2022/02/14 04:09:24;;;;;;;4.50;2.00;;;;;;;;;;5071781;28;21170;-70
2022/02/14 04:11:49;;;;;;;7.70;2.30;;;;;;;;;;5069269;28;20177;-70
2022/02/14 04:14:14;;;;;;;6.70;2.07;;;;;;;;;;5068349;28;20177;-70
2022/02/14 04:16:40;;;;;;;4.10;2.37;;;;;;;;;;5077332;28;20232;-70
2022/02/14 04:19:05;;;;;;;3.63;1.87;;;;;;;;;;5050131;28;20224;-70
2022/02/14 04:21:31;;;;;;;4.20;2.47;;;;;;;;;;5054821;28;20173;-70
2022/02/14 04:23:56;;;;;;;3.30;1.93;;;;;;;;;;5074002;28;20254;-70
2022/02/14 04:26:21;;;;;;;5.57;2.30;;;;;;;;;;5072817;28;20232;-70
2022/02/14 04:28:46;;;;;;;4.97;2.10;;;;;;;;;;5074393;28;20196;-70
2022/02/14 04:31:12;;;;;;;2.70;1.77;;;;;;;;;;5068424;28;20181;-70
2022/02/14 04:33:37;;;;;;;3.53;2.17;;;;;;;;;;5078222;28;20177;-70
2022/02/14 04:36:02;;;;;;;2.60;2.07;;;;;;;;;;5070422;28;20216;-69
2022/02/14 04:38:27;;;;;;;5.13;2.30;;;;;;;;;;5070147;28;20192;-70
2022/02/14 04:40:53;;;;;;;6.27;2.30;;;;;;;;;;5070374;28;20184;-70
2022/02/14 04:43:18;;;;;;;4.93;2.27;;;;;;;;;;5072767;28;20184;-70
2022/02/14 04:45:43;;;;;;;2.83;2.00;;;;;;;;;;5078317;28;20433;-70
2022/02/14 04:48:08;;;;;;;2.70;1.67;;;;;;;;;;5072352;28;20176;-69
2022/02/14 04:50:33;;;;;;;5.47;2.17;;;;;;;;;;5070922;28;20201;-69
2022/02/14 04:52:59;;;;;;;5.20;2.87;;;;;;;;;;5076208;28;20175;-70
2022/02/14 04:55:24;;;;;;;3.40;1.97;;;;;;;;;;5073325;28;20184;-70
2022/02/14 04:57:49;;;;;;;10.40;2.43;;;;;;;;;;5076338;28;20668;-70
2022/02/14 05:00:16;;;;;;;3.00;1.70;;;;;;;;;;5072927;28;20213;-70
2022/02/14 05:02:41;;;;;;;8.20;2.23;;;;;;;;;;5074965;28;20188;-69
2022/02/14 05:05:07;;;;;;;7.63;2.77;;;;;;;;;;5077403;28;20330;-69
2022/02/14 05:07:33;;;;;;;6.23;2.10;;;;;;;;;;5053095;28;20181;-70
2022/02/14 05:09:58;;;;;;;3.40;3.10;;;;;;;;;;5073619;28;20192;-70
2022/02/14 05:12:23;;;;;;;5.43;2.27;;;;;;;;;;5070008;28;20185;-69
2022/02/14 05:14:48;;;;;;;5.43;2.10;;;;;;;;;;5072358;28;20200;-70
2022/02/14 05:17:15;;;;;;;3.63;1.60;;;;;;;;;;5068712;28;20206;-70
2022/02/14 05:19:40;;;;;;;6.17;1.80;;;;;;;;;;5061537;28;20211;-70
2022/02/14 05:22:06;;;;;;;2.77;1.80;;;;;;;;;;5070387;28;20208;-70
2022/02/14 05:24:31;;;;;;;5.10;2.00;;;;;;;;;;5056273;28;20673;-69
2022/02/14 05:26:56;;;;;;;3.23;1.73;;;;;;;;;;5073213;28;20643;-70
2022/02/14 05:29:21;;;;;;;3.83;2.00;;;;;;;;;;5074724;28;20241;-70
2022/02/14 05:31:46;;;;;;;3.80;1.93;;;;;;;;;;5074609;28;20642;-70
2022/02/14 05:34:11;;;;;;;6.07;2.50;;;;;;;;;;5062454;28;20542;-70
2022/02/14 05:36:37;;;;;;;3.40;1.87;;;;;;;;;;5052851;28;20280;-70
2022/02/14 05:39:02;;;;;;;3.20;1.67;;;;;;;;;;5072859;28;20240;-70
2022/02/14 05:41:28;;;;;;;5.40;2.10;;;;;;;;;;5071488;28;20646;-71
2022/02/14 05:43:53;;;;;;;5.30;1.60;;;;;;;;;;5070033;28;20204;-70
2022/02/14 05:46:18;;;;;;;6.83;2.73;;;;;;;;;;5069696;28;20204;-70
2022/02/14 05:48:44;;;;;;;3.93;1.90;;;;;;;;;;5074935;28;20214;-70
2022/02/14 05:51:10;;;;;;;4.43;2.13;;;;;;;;;;5070011;28;20177;-70
2022/02/14 05:53:35;;;;;;;3.60;2.43;;;;;;;;;;5074627;28;20173;-71
2022/02/14 05:56:00;;;;;;;5.43;1.70;;;;;;;;;;5070486;28;20646;-70
2022/02/14 05:58:26;;;;;;;3.20;1.70;;;;;;;;;;5070541;28;20181;-71
2022/02/14 06:00:51;;;;;;;5.13;1.90;;;;;;;;;;5064511;28;20197;-71
2022/02/14 06:03:16;;;;;;;3.50;1.90;;;;;;;;;;5067929;28;20195;-70
2022/02/14 06:05:41;;;;;;;4.40;1.93;;;;;;;;;;5072451;28;20250;-70
2022/02/14 06:08:06;;;;;;;3.20;1.80;;;;;;;;;;5074065;28;20256;-70
2022/02/14 06:10:31;;;;;;;4.60;2.00;;;;;;;;;;5070761;28;20192;-69
2022/02/14 06:12:57;;;;;;;4.50;1.83;;;;;;;;;;5066628;28;20780;-70
2022/02/14 06:15:22;;;;;;;3.23;1.80;;;;;;;;;;5070455;28;20602;-68
2022/02/14 06:17:47;;;;;;;4.27;1.70;;;;;;;;;;5067409;28;20173;-69
2022/02/14 06:20:15;;;;;;;4.03;2.03;;;;;;;;;;5074375;28;20712;-71
2022/02/14 06:22:40;;;;;;;2.97;1.83;;;;;;;;;;5052314;28;20647;-70
2022/02/14 06:25:05;;;;;;;3.20;1.30;;;;;;;;;;5071034;28;20300;-70
2022/02/14 06:27:30;;;;;;;5.00;1.90;;;;;;;;;;5069453;28;20173;-70
2022/02/14 06:29:56;;;;;;;6.17;2.00;;;;;;;;;;5070040;28;20192;-70
2022/02/14 06:32:21;;;;;;;4.43;1.90;;;;;;;;;;5066614;28;20173;-70
2022/02/14 06:34:46;;;;;;;2.87;1.90;;;;;;;;;;5069819;28;20207;-69
2022/02/14 06:37:11;;;;;;;3.97;1.93;;;;;;;;;;5068034;28;20260;-70
2022/02/14 06:39:37;;;;;;;3.43;2.23;;;;;;;;;;5070593;28;20197;-69
2022/02/14 06:42:02;;;;;;;3.47;2.30;;;;;;;;;;5064513;28;20216;-70
2022/02/14 06:44:27;;;;;;;4.13;2.30;;;;;;;;;;5077672;28;20180;-70
2022/02/14 06:46:54;;;;;;;7.77;2.43;;;;;;;;;;5068678;28;20211;-71
2022/02/14 06:49:19;;;;;;;6.03;2.10;;;;;;;;;;5070801;28;20212;-70
2022/02/14 06:51:44;;;;;;;3.67;1.93;;;;;;;;;;5070552;28;20181;-70
2022/02/14 06:54:10;;;;;;;3.30;1.53;;;;;;;;;;5069114;28;20212;-70
2022/02/14 06:56:35;;;;;;;1.73;0.80;;;;;;;;;;5069300;28;20169;-70
2022/02/14 06:59:00;;;;;;;0.70;0.60;;;;;;;;;;5069102;28;20237;-70
2022/02/14 07:01:25;;;;;;;1.10;0.63;;;;;;;;;;5065622;28;20181;-70
2022/02/14 07:03:50;;;;;;;1.80;0.63;;;;;;;;;;5066402;28;20692;-71
2022/02/14 07:06:17;;;;;;;0.77;0.73;;;;;;;;;;5067944;28;20205;-70
2022/02/14 07:08:44;;;;;;;1.93;1.73;;;;;;;;;;5068882;28;20174;-70
2022/02/14 07:11:09;;;;;;;0.80;0.73;;;;;;;;;;5069398;28;20199;-70
2022/02/14 07:13:34;;;;;;;2.13;0.90;;;;;;;;;;5071357;28;20208;-70
2022/02/14 07:15:59;;;;;;;2.57;1.20;;;;;;;;;;5073134;28;20200;-70
2022/02/14 07:18:25;;;;;;;4.30;1.40;;;;;;;;;;5069252;28;20184;-71
2022/02/14 07:20:50;;;;;;;1.33;0.93;;;;;;;;;;5068855;28;20185;-71
2022/02/14 07:23:15;;;;;;;1.10;0.90;;;;;;;;;;5069336;28;20189;-69
2022/02/14 07:25:40;;;;;;;1.20;1.07;;;;;;;;;;5068924;28;20205;-69
2022/02/14 07:28:06;;;;;;;4.37;1.23;;;;;;;;;;5069051;28;20579;-69
2022/02/14 07:30:31;;;;;;;1.17;1.00;;;;;;;;;;5069403;28;20246;-71
2022/02/14 07:32:56;;;;;;;3.40;1.50;;;;;;;;;;5069395;28;20173;-71
2022/02/14 07:35:21;;;;;;;2.47;1.20;;;;;;;;;;5068907;28;20185;-69
2022/02/14 07:37:47;;;;;;;1.67;1.30;;;;;;;;;;5068981;28;20529;-69
2022/02/14 07:40:13;;;;;;;2.80;1.30;;;;;;;;;;5068747;28;20274;-69
2022/02/14 07:42:38;;;;;;;2.87;1.40;;;;;;;;;;5075329;28;20177;-69
2022/02/14 07:45:04;;;;;;;3.60;1.60;;;;;;;;;;5072004;28;20267;-69
2022/02/14 07:47:29;;;;;;;1.73;1.40;;;;;;;;;;5072422;28;20650;-70
2022/02/14 07:49:54;;;;;;;1.70;1.40;;;;;;;;;;5073101;28;20232;-71
2022/02/14 07:52:20;;;;;;;1.90;1.63;;;;;;;;;;5070997;28;20179;-71
2022/02/14 07:54:45;;;;;;;5.50;1.80;;;;;;;;;;5075472;28;20578;-69
2022/02/14 07:57:10;;;;;;;1.77;1.40;;;;;;;;;;5069416;28;20370;-71
2022/02/14 07:59:35;;;;;;;3.23;1.77;;;;;;;;;;5070809;28;20193;-71
2022/02/14 08:02:00;;;;;;;3.57;2.10;;;;;;;;;;5057346;28;20224;-71
2022/02/14 08:04:26;;;;;;;2.83;1.70;;;;;;;;;;5069792;28;20184;-70
2022/02/14 08:06:51;;;;;;;3.93;2.00;;;;;;;;;;5072959;28;20169;-71
2022/02/14 08:09:17;;;;;;;1.47;1.23;;;;;;;;;;5064843;28;20216;-71
2022/02/14 08:11:42;;;;;;;2.37;1.27;;;;;;;;;;5071786;28;20666;-71
2022/02/14 08:14:07;;;;;;;2.73;1.30;;;;;;;;;;5076947;28;20216;-70
2022/02/14 08:16:33;;;;;;;1.77;1.50;;;;;;;;;;5073701;28;20173;-70
2022/02/14 08:19:01;;;;;;;5.77;1.50;;;;;;;;;;5086768;22;20286;-68
2022/02/14 08:21:27;;;;;;;4.77;1.40;;;;;;;;;;5051042;28;20265;-68
2022/02/14 08:23:53;;;;;;;4.47;1.43;;;;;;;;;;5050555;28;20181;-68
2022/02/14 08:26:18;;;;;;;3.50;1.80;;;;;;;;;;5046867;28;20294;-69
2022/02/14 08:28:44;;;;;;;2.77;1.10;;;;;;;;;;5047235;28;20174;-68
2022/02/14 08:31:09;;;;;;;2.67;1.50;;;;;;;;;;5025053;28;20194;-68
2022/02/14 08:33:34;;;;;;;3.83;1.20;;;;;;;;;;5022445;28;20181;-68
2022/02/14 08:35:59;;;;;;;5.63;1.27;;;;;;;;;;5026971;28;20281;-68
2022/02/14 08:38:25;;;;;;;2.90;1.27;;;;;;;;;;5030133;28;20186;-69
2022/02/14 08:40:50;;;;;;;1.30;1.20;;;;;;;;;;5028599;28;20562;-68
2022/02/14 08:43:16;;;;;;;2.47;0.97;;;;;;;;;;5029950;28;20181;-69
2022/02/14 08:45:41;;;;;;;2.67;1.30;;;;;;;;;;5029602;28;20198;-68
2022/02/14 08:48:06;;;;;;;2.30;1.27;;;;;;;;;;5028604;28;20236;-67
2022/02/14 08:50:32;;;;;;;4.30;1.40;;;;;;;;;;5027030;28;20256;-68
2022/02/14 08:53:00;;;;;;;3.20;1.60;;;;;;;;;;5011974;28;20647;-69
2022/02/14 08:55:26;;;;;;;4.33;1.33;;;;;;;;;;5028567;28;20620;-69
2022/02/14 08:57:51;;;;;;;3.53;1.80;;;;;;;;;;5024060;28;20187;-68
2022/02/14 09:00:17;;;;;;;2.37;1.70;;;;;;;;;;5023355;28;20202;-69
2022/02/14 09:02:42;;;;;;;2.03;1.40;;;;;;;;;;5028875;28;20651;-68
2022/02/14 09:05:07;;;;;;;1.87;1.40;;;;;;;;;;5029536;28;20206;-68
2022/02/14 09:07:32;;;;;;;2.97;2.37;;;;;;;;;;5012950;28;20189;-67
2022/02/14 09:09:57;;;;;;;2.03;1.60;;;;;;;;;;5029949;28;20277;-68
2022/02/14 09:12:23;;;;;;;3.53;1.80;;;;;;;;;;5011442;28;20186;-68
2022/02/14 09:14:48;;;;;;;2.77;2.23;;;;;;;;;;5010483;28;20223;-68
2022/02/14 09:17:14;;;;;;;2.70;1.80;;;;;;;;;;5031074;28;20216;-68
2022/02/14 09:19:39;;;;;;;3.17;2.07;;;;;;;;;;5028099;28;20213;-67
2022/02/14 09:22:04;;;;;;;3.97;2.20;;;;;;;;;;5030629;28;20182;-68
2022/02/14 09:24:30;;;;;;;2.57;2.07;;;;;;;;;;5028245;28;20182;-67
2022/02/14 09:26:56;;;;;;;2.93;1.80;;;;;;;;;;5027811;28;20664;-67
2022/02/14 09:29:22;;;;;;;2.20;1.90;;;;;;;;;;5026749;28;20325;-68
2022/02/14 09:31:47;;;;;;;3.50;2.10;;;;;;;;;;5028606;28;20177;-68
2022/02/14 09:34:12;;;;;;;3.37;2.70;;;;;;;;;;5028255;28;20200;-67
2022/02/14 09:36:38;;;;;;;4.53;2.20;;;;;;;;;;5030117;28;20170;-67
2022/02/14 09:39:03;;;;;;;4.30;2.33;;;;;;;;;;5027300;28;20213;-68
2022/02/14 09:41:29;;;;;;;3.60;2.20;;;;;;;;;;5025601;28;20190;-67
2022/02/14 09:43:54;;;;;;;3.00;1.90;;;;;;;;;;5029802;28;20174;-67
2022/02/14 09:46:21;;;;;;;4.90;2.20;;;;;;;;;;5028734;28;20228;-67
2022/02/14 09:48:46;;;;;;;4.77;1.87;;;;;;;;;;5011039;28;20170;-68
2022/02/14 09:51:12;;;;;;;4.47;2.13;;;;;;;;;;5011957;28;20193;-69
2022/02/14 09:53:39;;;;;;;4.50;2.47;;;;;;;;;;5028239;28;20277;-70
2022/02/14 09:56:04;;;;;;;5.53;1.90;;;;;;;;;;5029135;28;20178;-68
2022/02/14 09:58:30;;;;;;;5.83;1.70;;;;;;;;;;5030262;28;20620;-68
2022/02/14 10:00:55;;;;;;;3.93;1.90;;;;;;;;;;5015070;28;20232;-68
2022/02/14 10:03:23;;;;;;;6.43;2.30;;;;;;;;;;5028083;28;20186;-68
2022/02/14 10:05:50;;;;;;;4.60;1.63;;;;;;;;;;5027155;28;20234;-68
2022/02/14 10:08:19;;;;;;;6.00;1.70;;;;;;;;;;5029142;28;20257;-69
2022/02/14 10:10:44;;;;;;;4.37;1.50;;;;;;;;;;5007468;28;20195;-69
2022/02/14 10:13:10;;;;;;;4.20;1.80;;;;;;;;;;5029789;28;20174;-68
2022/02/14 10:15:47;;;;;;;4.00;1.90;;;;;;;;;;5028933;28;20194;-67
2022/02/14 10:18:24;;;;;;;4.43;2.13;;;;;;;;;;5026928;28;20561;-67
2022/02/14 10:20:49;;;;;;;3.13;1.83;;;;;;;;;;5028244;28;20239;-67
2022/02/14 10:23:14;;;;;;;5.90;2.50;;;;;;;;;;5028055;28;20786;-68
2022/02/14 10:25:40;;;;;;;5.60;2.60;;;;;;;;;;5026032;28;20229;-68
2022/02/14 10:28:12;;;;;;;6.73;2.43;;;;;;;;;;5028758;28;20820;-68
2022/02/14 10:30:52;;;;;;;4.67;2.00;;;;;;;;;;5033175;28;20217;-68
2022/02/14 10:33:17;;;;;;;7.13;2.77;;;;;;;;;;5025591;28;20191;-68
2022/02/14 10:35:46;;;;;;;4.37;2.37;;;;;;;;;;5026029;28;20351;-68
2022/02/14 10:38:12;;;;;;;6.63;2.47;;;;;;;;;;5028792;28;20182;-69
2022/02/14 10:40:39;;;;;;;7.10;2.60;;;;;;;;;;5025798;28;20217;-68
2022/02/14 10:43:04;;;;;;;3.87;1.97;;;;;;;;;;5029057;28;20242;-69
2022/02/14 10:45:29;;;;;;;6.93;2.73;;;;;;;;;;5034884;28;20248;-68
2022/02/14 10:47:56;;;;;;;5.23;2.00;;;;;;;;;;5037074;28;20663;-69
2022/02/14 10:50:26;;;;;;;5.10;1.73;;;;;;;;;;5029899;28;20202;-68
2022/02/14 10:52:55;;;;;;;5.50;1.93;;;;;;;;;;5027558;28;20228;-69
2022/02/14 10:55:22;;;;;;;4.40;2.00;;;;;;;;;;5029140;28;20274;-67
2022/02/14 10:57:49;;;;;;;4.07;1.90;;;;;;;;;;5028149;28;20528;-69
2022/02/14 11:00:15;;;;;;;7.20;2.07;;;;;;;;;;5029438;28;20202;-67
2022/02/14 11:02:43;;;;;;;6.90;2.07;;;;;;;;;;5019061;28;20193;-68
2022/02/14 11:05:08;;;;;;;3.47;1.70;;;;;;;;;;5026985;28;20577;-69
2022/02/14 11:07:33;;;;;;;11.03;2.00;;;;;;;;;;5027550;28;20171;-68
2022/02/14 11:10:00;;;;;;;3.67;1.90;;;;;;;;;;5028967;28;20297;-68
2022/02/14 11:12:29;;;;;;;3.53;1.47;;;;;;;;;;5028560;28;20225;-67
2022/02/14 11:14:55;;;;;;;3.43;1.20;;;;;;;;;;5029500;28;20549;-68
2022/02/14 11:17:30;;;;;;;5.17;1.60;;;;;;;;;;5030937;28;20209;-69
2022/02/14 11:19:57;;;;;;;3.60;1.67;;;;;;;;;;5028539;28;20217;-68
2022/02/14 11:22:24;;;;;;;3.37;1.27;;;;;;;;;;5030481;28;21168;-68
2022/02/14 11:24:52;;;;;;;2.63;1.00;;;;;;;;;;5032547;28;20202;-68
2022/02/14 11:27:18;;;;;;;8.13;1.43;;;;;;;;;;5030968;28;20174;-69
2022/02/14 11:29:46;;;;;;;2.57;1.00;;;;;;;;;;5030061;28;20316;-68
2022/02/14 11:32:21;;;;;;;4.93;1.30;;;;;;;;;;5032017;28;20182;-69
2022/02/14 11:34:54;;;;;;;5.07;1.70;;;;;;;;;;5036077;28;20172;-68
2022/02/14 11:37:19;;;;;;;3.77;1.20;;;;;;;;;;5031087;28;20170;-68
2022/02/14 11:39:44;;;;;;;4.73;2.10;;;;;;;;;;5011018;28;20194;-68
2022/02/14 11:42:09;;;;;;;4.33;1.40;;;;;;;;;;5031611;28;20324;-69
2022/02/14 11:44:34;;;;;;;4.27;1.47;;;;;;;;;;5032482;28;20601;-68
2022/02/14 11:47:02;;;;;;;5.37;1.97;;;;;;;;;;5031080;28;20189;-68
2022/02/14 11:49:43;;;;;;;4.53;1.33;;;;;;;;;;5032600;28;20687;-69
2022/02/14 11:52:28;;;;;;;3.40;1.13;;;;;;;;;;5030644;28;20185;-69
2022/02/14 11:54:53;;;;;;;3.77;1.10;;;;;;;;;;5008800;28;20171;-69
2022/02/14 11:57:33;;;;;;;4.63;1.47;;;;;;;;;;5030705;28;20369;-68
2022/02/14 12:00:17;;;;;;;3.40;1.40;;;;;;;;;;5026854;28;20201;-68
2022/02/14 12:02:54;;;;;;;5.37;1.13;;;;;;;;;;5026579;28;20466;-69
2022/02/14 12:05:39;;;;;;;4.10;1.10;;;;;;;;;;5016175;28;20260;-67
2022/02/14 12:08:05;;;;;;;4.70;0.80;;;;;;;;;;5017168;28;20186;-68
2022/02/14 12:10:32;;;;;;;3.97;0.90;;;;;;;;;;5009106;28;20217;-66
2022/02/14 12:13:01;;;;;;;3.67;0.63;;;;;;;;;;5032363;28;20196;-68
2022/02/14 12:20:40;;;;;;;6.83;1.03;;;;;;;;;;5029142;28;20484;-67
2022/02/14 12:23:06;;;;;;;4.20;1.17;;;;;;;;;;5012385;28;20728;-67
2022/02/14 12:25:31;;;;;;;5.13;0.93;;;;;;;;;;5029969;28;20214;-67
2022/02/14 12:28:01;;;;;;;4.00;0.87;;;;;;;;;;5029029;28;20675;-68
2022/02/14 12:30:26;;;;;;;2.73;0.80;;;;;;;;;;5030178;28;21437;-68
2022/02/14 12:32:57;;;;;;;3.73;1.10;;;;;;;;;;5029818;28;20209;-68
2022/02/14 12:35:33;;;;;;;2.23;0.80;;;;;;;;;;5029013;28;20716;-67
2022/02/14 12:37:58;;;;;;;2.13;0.93;;;;;;;;;;5027152;28;20209;-68
2022/02/14 12:40:24;;;;;;;3.23;0.80;;;;;;;;;;5028929;28;20561;-67
2022/02/14 12:42:49;;;;;;;6.30;2.07;;;;;;;;;;5011255;28;20182;-67
2022/02/14 12:45:15;;;;;;;6.77;1.70;;;;;;;;;;5026311;28;20213;-68
2022/02/14 12:47:42;;;;;;;8.27;1.80;;;;;;;;;;5028542;28;20174;-69
2022/02/14 12:50:16;;;;;;;3.77;0.90;;;;;;;;;;5029358;28;20198;-67
2022/02/14 12:52:43;;;;;;;2.40;0.60;;;;;;;;;;5010542;28;20559;-68
2022/02/14 12:55:08;;;;;;;4.27;0.97;;;;;;;;;;5027469;28;20182;-67
2022/02/14 12:57:33;;;;;;;5.63;0.90;;;;;;;;;;5029368;28;20182;-69
2022/02/14 12:59:58;;;;;;;4.40;0.90;;;;;;;;;;5009540;28;20991;-69
2022/02/14 13:02:23;;;;;;;4.87;1.83;;;;;;;;;;5029951;28;20182;-69
2022/02/14 13:04:49;;;;;;;5.37;1.00;;;;;;;;;;5013194;28;20174;-67
2022/02/14 13:07:14;;;;;;;3.80;1.30;;;;;;;;;;5021023;28;20364;-68
2022/02/14 13:09:39;;;;;;;6.47;1.47;;;;;;;;;;5029559;28;20206;-69
2022/02/14 13:12:04;;;;;;;3.40;1.17;;;;;;;;;;5029481;28;20178;-68
2022/02/14 13:14:34;;;;;;;3.93;1.13;;;;;;;;;;5027990;28;20281;-67
2022/02/14 13:17:00;;;;;;;2.58;1.17;;;;;;;;;;5028292;28;20174;-68
2022/02/14 13:19:26;;;;;;;5.05;1.17;;;;;;;;;;5030062;28;20225;-68
2022/02/14 13:21:51;;;;;;;4.88;1.23;;;;;;;;;;5029074;28;20178;-68
2022/02/14 13:24:17;;;;;;;3.90;1.50;;;;;;;;;;5031839;28;20652;-68
2022/02/14 13:26:43;;;;;;;6.57;1.63;;;;;;;;;;5009604;28;20702;-68
2022/02/14 13:29:08;;;;;;;6.25;1.50;;;;;;;;;;5030090;28;20285;-68
2022/02/14 13:31:34;;;;;;;3.30;1.10;;;;;;;;;;5029108;28;20420;-68
2022/02/14 13:34:02;;;;;;;7.13;1.40;;;;;;;;;;5011570;28;20178;-68
2022/02/14 13:36:27;;;;;;;3.27;1.23;;;;;;;;;;5029690;28;20186;-68
2022/02/14 13:38:54;;;;;;;6.57;1.40;;;;;;;;;;5029249;28;20261;-69
2022/02/14 13:41:26;;;;;;;5.07;2.00;;;;;;;;;;5027692;28;20190;-68
2022/02/14 13:43:52;;;;;;;6.53;1.30;;;;;;;;;;5007836;28;20197;-68
2022/02/14 13:46:25;;;;;;;3.63;1.10;;;;;;;;;;5028663;28;20209;-69
2022/02/14 13:48:50;;;;;;;6.40;1.50;;;;;;;;;;5024439;28;20185;-68
2022/02/14 13:51:18;;;;;;;5.40;1.40;;;;;;;;;;5028181;28;20200;-70
2022/02/14 13:53:51;;;;;;;5.03;1.50;;;;;;;;;;5026637;28;20178;-67
2022/02/14 13:56:19;;;;;;;7.07;1.70;;;;;;;;;;5028427;28;20190;-69
2022/02/14 13:58:45;;;;;;;6.80;1.30;;;;;;;;;;5030009;28;20167;-70
2022/02/14 14:01:24;;;;;;;4.33;1.20;;;;;;;;;;5029126;28;20205;-67
2022/02/14 14:03:50;;;;;;;5.63;1.50;;;;;;;;;;5022108;28;20564;-67
2022/02/14 14:06:35;;;;;;;2.17;1.37;;;;;;;;;;5027510;28;21971;-67
2022/02/14 14:09:17;;;;;;;4.40;1.30;;;;;;;;;;5016518;28;20801;-67
2022/02/14 14:11:43;;;;;;;5.60;1.20;;;;;;;;;;5027612;28;20186;-67
2022/02/14 14:14:08;;;;;;;5.03;1.77;;;;;;;;;;5027791;28;20179;-68
2022/02/14 14:16:34;;;;;;;6.57;1.97;;;;;;;;;;5028575;28;20196;-67
2022/02/14 14:21:30;;;;;;;6.27;1.50;;;;;;;;;;5084858;28;20608;-68
2022/02/14 14:23:56;;;;;;;3.83;1.27;;;;;;;;;;5089263;28;20177;-69
2022/02/14 14:26:23;;;;;;;5.60;1.50;;;;;;;;;;5089669;28;20196;-70
2022/02/14 14:28:50;;;;;;;6.50;1.27;;;;;;;;;;5087156;28;20169;-68
2022/02/14 14:31:15;;;;;;;9.07;1.40;;;;;;;;;;5068295;28;20280;-69
2022/02/14 14:33:40;;;;;;;4.07;1.30;;;;;;;;;;5068682;28;20280;-69
2022/02/14 14:36:06;;;;;;;3.57;1.20;;;;;;;;;;5066243;28;20192;-68
2022/02/14 14:38:32;;;;;;;6.47;1.53;;;;;;;;;;5068179;28;20176;-69
2022/02/14 14:40:58;;;;;;;3.70;1.10;;;;;;;;;;5069077;28;20231;-68
2022/02/14 14:43:23;;;;;;;4.33;1.27;;;;;;;;;;5066035;28;20212;-68
2022/02/14 14:45:48;;;;;;;5.37;1.00;;;;;;;;;;5063558;28;20184;-69